createdAt,value
2017-07-01T04:26:49.964Z,0.55
2017-07-01T04:27:52.631Z,0.51
2017-07-01T04:28:55.353Z,0.58
2017-07-01T04:29:58.024Z,0.57
2017-07-01T04:31:00.637Z,0.55
2017-07-01T04:32:03.310Z,0.49
2017-07-01T04:33:05.823Z,0.53
2017-07-01T04:34:08.520Z,0.51
2017-07-01T04:35:11.181Z,0.58
2017-07-01T04:36:13.873Z,0.55
2017-07-01T04:37:16.541Z,0.55
2017-07-01T04:38:19.314Z,0.57
2017-07-01T04:39:21.782Z,0.66
2017-07-01T04:40:24.394Z,0.68
2017-07-01T04:41:27.106Z,0.68
2017-07-01T04:42:29.693Z,0.73
2017-07-01T04:43:32.240Z,0.65
2017-07-01T04:44:34.717Z,0.57
2017-07-01T04:45:37.242Z,0.60
2017-07-01T04:46:39.901Z,0.61
2017-07-01T04:47:42.589Z,0.68
2017-07-01T04:48:45.161Z,0.60
2017-07-01T04:49:47.746Z,0.57
2017-07-01T04:50:50.434Z,0.66
2017-07-01T04:51:53.000Z,0.62
2017-07-01T04:52:55.518Z,0.61
2017-07-01T04:53:58.085Z,0.55
2017-07-01T04:55:00.698Z,0.53
2017-07-01T04:56:03.406Z,0.57
2017-07-01T04:57:06.071Z,0.61
2017-07-01T04:58:08.819Z,0.55
2017-07-01T04:59:11.563Z,0.55
2017-07-01T05:00:14.128Z,0.53
2017-07-01T05:01:16.794Z,0.51
2017-07-01T05:02:19.357Z,0.46
2017-07-01T05:03:21.936Z,0.49
2017-07-01T05:04:24.464Z,0.41
2017-07-01T05:05:27.083Z,0.46
2017-07-01T05:06:29.659Z,0.47
2017-07-01T05:07:32.239Z,0.44
2017-07-01T05:08:34.729Z,0.42
2017-07-01T05:09:37.354Z,0.51
2017-07-01T05:10:39.832Z,0.57
2017-07-01T05:11:42.363Z,0.51
2017-07-01T05:12:44.900Z,0.50
2017-07-01T05:13:47.494Z,0.50
2017-07-01T05:14:50.079Z,0.69
2017-07-01T05:17:51.967Z,0.76
2017-07-01T05:18:54.437Z,0.75
2017-07-01T05:20:17.764Z,0.79
